createdAt,value
2023-05-05T00:02:37.140Z,76.08
2023-05-05T00:07:01.113Z,75.93
2023-05-05T00:11:35.940Z,75.98
2023-05-05T00:16:07.536Z,76.31
2023-05-05T00:20:40.883Z,76.14
2023-05-05T00:25:12.566Z,76.19
2023-05-05T00:29:41.161Z,75.73
2023-05-05T00:34:07.040Z,75.64
2023-05-05T00:38:36.335Z,76.16
2023-05-05T00:43:00.301Z,75.89
2023-05-05T00:47:29.952Z,75.79
2023-05-05T00:51:55.913Z,75.67
2023-05-05T00:56:23.838Z,75.47
2023-05-05T01:00:56.568Z,75.58
2023-05-05T01:05:26.129Z,75.58
2023-05-05T01:10:18.853Z,75.72
2023-05-05T01:14:53.492Z,76.13
2023-05-05T01:19:31.931Z,75.85
2023-05-05T01:24:04.665Z,75.80
2023-05-05T01:28:34.221Z,76.06
2023-05-05T01:32:58.191Z,75.77
2023-05-05T01:37:23.363Z,75.72
2023-05-05T01:41:53.148Z,75.93
2023-05-05T01:46:23.114Z,75.98
2023-05-05T01:50:54.073Z,76.35
2023-05-05T01:55:21.050Z,76.12
2023-05-05T01:59:51.608Z,76.39
2023-05-05T02:04:15.534Z,76.31
2023-05-05T02:13:46.076Z,76.19
2023-05-05T02:18:12.861Z,76.19
2023-05-05T02:22:37.755Z,76.51
2023-05-05T02:27:03.781Z,76.77
2023-05-05T02:31:36.005Z,76.71
2023-05-05T02:36:06.595Z,76.75
2023-05-05T02:40:41.245Z,76.46
2023-05-05T02:45:05.333Z,76.70
2023-05-05T02:49:31.411Z,76.20
2023-05-05T02:54:05.944Z,75.96
2023-05-05T02:58:47.918Z,76.19
2023-05-05T03:03:17.682Z,76.07
2023-05-05T03:07:43.640Z,76.16
2023-05-05T03:12:08.647Z,76.54
2023-05-05T03:16:34.679Z,76.31
2023-05-05T03:20:58.676Z,76.49
2023-05-05T03:25:22.635Z,76.39
2023-05-05T03:29:46.715Z,76.77
2023-05-05T03:34:15.939Z,76.52
2023-05-05T03:38:41.865Z,76.41
2023-05-05T03:43:11.361Z,76.60
2023-05-05T03:47:35.357Z,76.93
2023-05-05T03:52:03.024Z,77.14
2023-05-05T03:56:26.947Z,76.84
2023-05-05T04:00:57.518Z,76.89
2023-05-05T04:05:30.400Z,77.14
2023-05-05T04:09:54.280Z,77.31
2023-05-05T04:14:19.358Z,76.95
2023-05-05T04:18:44.386Z,77.15
2023-05-05T04:23:16.286Z,77.07
2023-05-05T04:27:41.222Z,77.05
2023-05-05T04:32:19.009Z,76.98
2023-05-05T04:36:51.573Z,76.91
2023-05-05T04:41:17.488Z,76.58
2023-05-05T04:45:42.321Z,76.67
2023-05-05T04:50:29.515Z,76.73
2023-05-05T04:54:54.820Z,77.01
2023-05-05T04:59:25.465Z,77.06
2023-05-05T05:04:03.247Z,77.31
2023-05-05T05:08:30.470Z,77.20
2023-05-05T05:13:04.098Z,77.12
2023-05-05T05:17:31.428Z,77.02
2023-05-05T05:22:02.223Z,76.72
2023-05-05T05:26:28.100Z,76.74
2023-05-05T05:30:57.737Z,76.58
2023-05-05T05:35:28.580Z,76.55
2023-05-05T05:39:54.402Z,76.50
2023-05-05T05:44:24.241Z,75.53
2023-05-05T05:48:53.176Z,75.64
2023-05-05T05:53:26.003Z,75.03
2023-05-05T05:57:52.042Z,74.16
2023-05-05T06:02:23.007Z,74.13
2023-05-05T06:06:57.628Z,73.51
2023-05-05T06:11:23.486Z,73.20
2023-05-05T06:15:47.500Z,72.66
2023-05-05T06:20:12.491Z,71.57
2023-05-05T06:24:38.079Z,70.88
2023-05-05T06:29:02.882Z,69.59
2023-05-05T06:33:27.007Z,68.88
2023-05-05T06:37:50.994Z,67.99
2023-05-05T06:42:16.890Z,67.42
2023-05-05T06:46:50.251Z,66.40
2023-05-05T06:51:19.930Z,65.39
2023-05-05T06:55:47.587Z,65.21
2023-05-05T07:00:11.552Z,63.32
2023-05-05T07:04:37.622Z,62.70
2023-05-05T07:09:07.359Z,58.52
2023-05-05T07:13:31.303Z,58.84
2023-05-05T07:17:59.635Z,57.72
2023-05-05T07:22:23.656Z,56.11
2023-05-05T07:26:49.025Z,56.39
2023-05-05T07:31:13.126Z,55.38
2023-05-05T07:35:39.206Z,53.11
2023-05-05T07:40:03.154Z,53.83
2023-05-05T07:44:27.229Z,53.73
2023-05-05T07:48:51.237Z,53.38
2023-05-05T07:53:16.107Z,52.76
2023-05-05T07:57:42.728Z,52.55
2023-05-05T08:02:06.767Z,50.58
2023-05-05T08:06:36.996Z,50.77
2023-05-05T08:11:05.316Z,49.84
2023-05-05T08:15:38.153Z,49.80
2023-05-05T08:20:07.866Z,50.62
2023-05-05T08:24:39.560Z,49.42
2023-05-05T08:29:10.098Z,48.81
2023-05-05T08:33:42.929Z,47.55
2023-05-05T08:38:06.767Z,48.23
2023-05-05T08:42:37.727Z,46.49
2023-05-05T08:47:05.983Z,47.47
2023-05-05T08:51:40.421Z,47.07
2023-05-05T08:56:04.425Z,47.66
2023-05-05T09:00:35.240Z,47.94
2023-05-05T09:05:02.340Z,48.29
2023-05-05T09:09:19.500Z,47.55
2023-05-05T09:13:46.456Z,46.51
2023-05-05T09:18:11.082Z,47.26
2023-05-05T09:22:39.207Z,46.88
2023-05-05T09:27:08.912Z,46.73
2023-05-05T09:31:43.444Z,46.86
2023-05-05T09:36:12.800Z,46.49
2023-05-05T09:41:13.077Z,46.52
2023-05-05T09:46:10.395Z,46.22
2023-05-05T09:50:48.208Z,45.28
2023-05-05T09:55:34.818Z,45.53
2023-05-05T10:05:13.634Z,45.07
2023-05-05T10:09:58.865Z,44.53
2023-05-05T10:14:22.176Z,44.12
2023-05-05T10:18:50.191Z,44.48
2023-05-05T10:23:25.943Z,42.84
2023-05-05T10:27:30.506Z,44.12
2023-05-05T10:31:57.641Z,44.53
2023-05-05T10:36:24.891Z,45.15
2023-05-05T10:53:12.246Z,41.42
2023-05-05T10:57:40.728Z,41.67
2023-05-05T11:02:09.755Z,41.66
2023-05-05T11:06:48.209Z,41.38
2023-05-05T11:11:34.130Z,41.89
2023-05-05T11:16:27.338Z,42.29
2023-05-05T11:21:17.224Z,42.27
2023-05-05T11:25:51.908Z,42.78
2023-05-05T11:30:45.647Z,42.25
2023-05-05T11:35:50.485Z,42.01
2023-05-05T11:40:40.764Z,41.16
2023-05-05T11:45:13.633Z,41.95
2023-05-05T11:49:36.796Z,42.27
2023-05-05T11:54:23.606Z,42.13
2023-05-05T11:58:59.608Z,41.77
2023-05-05T12:04:03.578Z,41.55
2023-05-05T12:08:45.713Z,41.14
2023-05-05T12:13:15.559Z,41.43
2023-05-05T12:18:02.381Z,41.01
2023-05-05T12:22:47.453Z,40.83
2023-05-05T12:27:32.467Z,40.72
2023-05-05T12:31:58.645Z,40.72
2023-05-05T12:36:21.879Z,40.67
2023-05-05T12:40:51.509Z,39.90
2023-05-05T12:45:15.991Z,39.85
2023-05-05T12:50:28.285Z,39.76
2023-05-05T12:55:32.164Z,39.44
2023-05-05T13:00:37.109Z,40.10
2023-05-05T13:05:49.903Z,39.88
2023-05-05T13:10:53.838Z,39.68
2023-05-05T13:15:26.950Z,39.51
2023-05-05T13:20:11.785Z,40.42
2023-05-05T13:24:50.818Z,40.82
2023-05-05T13:29:16.423Z,40.89
2023-05-05T13:34:00.187Z,40.68
2023-05-05T13:38:45.538Z,41.09
2023-05-05T13:43:50.343Z,41.27
2023-05-05T13:48:34.828Z,40.63
2023-05-05T13:52:57.674Z,41.53
2023-05-05T13:57:22.475Z,41.48
2023-05-05T14:02:28.454Z,40.85
2023-05-05T14:07:12.645Z,41.58
2023-05-05T14:11:56.945Z,41.30
2023-05-05T14:16:43.411Z,41.00
2023-05-05T14:21:49.391Z,41.00
2023-05-05T14:26:59.075Z,40.77
2023-05-05T14:31:24.624Z,40.75
2023-05-05T14:35:49.346Z,40.64
2023-05-05T14:40:13.218Z,40.69
2023-05-05T14:44:37.301Z,40.25
2023-05-05T14:49:21.308Z,41.02
2023-05-05T14:54:14.224Z,41.52
2023-05-05T14:58:52.223Z,41.65
2023-05-05T15:03:38.745Z,42.14
2023-05-05T15:08:25.876Z,42.01
2023-05-05T15:12:50.657Z,42.02
2023-05-05T15:17:34.989Z,42.55
2023-05-05T15:22:00.876Z,42.25
2023-05-05T15:27:04.845Z,42.59
2023-05-05T15:31:52.289Z,43.39
2023-05-05T15:36:20.408Z,43.58
2023-05-05T15:40:43.639Z,42.96
2023-05-05T15:45:27.833Z,43.58
2023-05-05T15:50:13.611Z,43.71
2023-05-05T15:54:45.799Z,43.91
2023-05-05T15:59:32.885Z,44.44
2023-05-05T16:04:16.216Z,43.83
2023-05-05T16:09:07.949Z,43.94
2023-05-05T16:13:52.636Z,43.95
2023-05-05T16:18:18.299Z,44.07
2023-05-05T16:23:02.534Z,44.55
2023-05-05T16:27:27.926Z,44.72
2023-05-05T16:32:13.961Z,45.22
2023-05-05T16:36:58.956Z,45.88
2023-05-05T16:41:44.298Z,46.06
2023-05-05T16:46:09.381Z,46.40
2023-05-05T16:50:35.574Z,46.49
2023-05-05T16:55:39.491Z,46.87
2023-05-05T17:00:04.441Z,47.09
2023-05-05T17:04:28.424Z,47.22
2023-05-05T17:08:52.431Z,47.61
2023-05-05T17:13:16.413Z,47.92
2023-05-05T17:18:21.231Z,48.41
2023-05-05T17:23:05.178Z,49.35
2023-05-05T17:27:29.109Z,49.84
2023-05-05T17:31:54.428Z,50.51
2023-05-05T17:37:01.144Z,51.02
2023-05-05T17:41:33.386Z,51.66
2023-05-05T17:46:17.791Z,51.99
2023-05-05T17:51:22.580Z,52.38
2023-05-05T17:56:27.527Z,52.85
2023-05-05T18:00:54.147Z,53.45
2023-05-05T18:05:39.552Z,53.68
2023-05-05T18:10:32.551Z,55.40
2023-05-05T18:15:16.655Z,55.81
2023-05-05T18:20:01.792Z,56.08
2023-05-05T18:24:47.930Z,56.23
2023-05-05T18:29:31.239Z,56.77
2023-05-05T18:33:55.278Z,56.92
2023-05-05T18:38:43.904Z,57.13
2023-05-05T18:43:10.005Z,57.08
2023-05-05T18:47:35.319Z,57.30
2023-05-05T18:52:19.512Z,57.39
2023-05-05T18:57:11.500Z,57.85
2023-05-05T19:01:57.493Z,58.61
2023-05-05T19:06:21.588Z,58.87
2023-05-05T19:11:07.790Z,59.01
2023-05-05T19:15:53.728Z,59.25
2023-05-05T19:20:40.212Z,59.38
2023-05-05T19:25:24.612Z,59.29
2023-05-05T19:30:30.680Z,59.54
2023-05-05T19:34:59.418Z,59.70
2023-05-05T19:39:27.237Z,60.06
2023-05-05T19:43:57.743Z,60.63
2023-05-05T19:49:03.593Z,60.53
2023-05-05T19:54:04.141Z,60.89
2023-05-05T19:58:49.390Z,61.27
2023-05-05T20:03:35.732Z,61.35
2023-05-05T20:08:40.461Z,61.69
2023-05-05T20:13:44.366Z,61.76
2023-05-05T20:18:50.184Z,62.01
2023-05-05T20:23:54.094Z,62.07
2023-05-05T20:28:38.291Z,62.12
2023-05-05T20:33:06.235Z,62.13
2023-05-05T20:37:53.239Z,62.34
2023-05-05T20:42:59.667Z,62.83
2023-05-05T20:47:43.989Z,62.91
2023-05-05T20:52:10.001Z,63.39
2023-05-05T20:56:38.576Z,63.30
2023-05-05T21:01:11.507Z,63.64
2023-05-05T21:05:38.750Z,64.03
2023-05-05T21:10:23.254Z,64.87
2023-05-05T21:15:07.344Z,64.75
2023-05-05T21:20:11.336Z,64.48
2023-05-05T21:25:15.870Z,64.43
2023-05-05T21:30:19.814Z,64.47
2023-05-05T21:35:06.111Z,64.46
2023-05-05T21:39:55.318Z,64.72
2023-05-05T21:44:26.429Z,64.78
2023-05-05T21:49:28.383Z,65.00
2023-05-05T21:54:35.101Z,65.24
2023-05-05T21:59:40.679Z,65.27
2023-05-05T22:04:10.824Z,64.98
2023-05-05T22:08:55.826Z,65.40
2023-05-05T22:13:41.473Z,65.60
2023-05-05T22:18:46.356Z,65.82
2023-05-05T22:23:34.001Z,66.24
2023-05-05T22:28:00.755Z,66.17
2023-05-05T22:33:06.696Z,66.58
2023-05-05T22:37:40.082Z,66.80
2023-05-05T22:42:38.262Z,67.14
2023-05-05T22:47:31.456Z,67.33
2023-05-05T22:52:22.131Z,67.45
2023-05-05T22:57:09.006Z,67.80
2023-05-05T23:02:16.781Z,68.03
2023-05-05T23:07:21.417Z,68.07
2023-05-05T23:11:52.342Z,68.24
2023-05-05T23:16:38.528Z,68.38
2023-05-05T23:21:11.973Z,68.28
2023-05-05T23:25:38.609Z,68.34
2023-05-05T23:30:07.494Z,68.46
2023-05-05T23:34:51.902Z,68.71
2023-05-05T23:39:36.138Z,68.76
2023-05-05T23:44:01.155Z,68.74
2023-05-05T23:48:45.977Z,68.85
2023-05-05T23:53:13.329Z,69.14
2023-05-05T23:57:39.380Z,69.29
